sensor_id;sensor_type;location;lat;lon;timestamp;P1;durP1;ratioP1;P2;durP2;ratioP2
51190;SDS011;37253;48.736;9.294;2022-07-10T00:01:59;2.65;;;2.45;;
51190;SDS011;37253;48.736;9.294;2022-07-10T00:03:59;2.75;;;2.42;;
51190;SDS011;37253;48.736;9.294;2022-07-10T00:06:00;2.15;;;2.00;;
51190;SDS011;37253;48.736;9.294;2022-07-10T00:08:01;2.28;;;2.08;;
51190;SDS011;37253;48.736;9.294;2022-07-10T00:10:01;2.95;;;2.47;;
51190;SDS011;37253;48.736;9.294;2022-07-10T00:12:02;2.33;;;2.17;;
51190;SDS011;37253;48.736;9.294;2022-07-10T00:14:05;2.33;;;2.08;;
51190;SDS011;37253;48.736;9.294;2022-07-10T00:16:05;2.60;;;2.40;;
51190;SDS011;37253;48.736;9.294;2022-07-10T00:18:06;2.38;;;2.08;;
51190;SDS011;37253;48.736;9.294;2022-07-10T00:20:06;2.40;;;2.20;;
51190;SDS011;37253;48.736;9.294;2022-07-10T00:22:07;2.67;;;2.08;;
51190;SDS011;37253;48.736;9.294;2022-07-10T00:24:07;2.35;;;2.15;;
51190;SDS011;37253;48.736;9.294;2022-07-10T00:26:10;2.85;;;2.58;;
51190;SDS011;37253;48.736;9.294;2022-07-10T00:28:10;2.50;;;2.30;;
51190;SDS011;37253;48.736;9.294;2022-07-10T00:30:11;2.35;;;2.15;;
51190;SDS011;37253;48.736;9.294;2022-07-10T00:32:11;1.98;;;1.80;;
51190;SDS011;37253;48.736;9.294;2022-07-10T00:34:12;2.60;;;2.30;;
51190;SDS011;37253;48.736;9.294;2022-07-10T00:36:13;2.20;;;2.00;;
51190;SDS011;37253;48.736;9.294;2022-07-10T00:38:13;2.50;;;2.30;;
51190;SDS011;37253;48.736;9.294;2022-07-10T00:40:14;2.80;;;2.53;;
51190;SDS011;37253;48.736;9.294;2022-07-10T00:42:15;4.90;;;1.88;;
51190;SDS011;37253;48.736;9.294;2022-07-10T00:44:15;2.35;;;2.15;;
51190;SDS011;37253;48.736;9.294;2022-07-10T00:46:16;2.28;;;2.08;;
51190;SDS011;37253;48.736;9.294;2022-07-10T00:48:20;2.85;;;2.13;;
51190;SDS011;37253;48.736;9.294;2022-07-10T00:50:20;2.20;;;2.10;;
51190;SDS011;37253;48.736;9.294;2022-07-10T00:52:20;2.47;;;2.28;;
51190;SDS011;37253;48.736;9.294;2022-07-10T00:54:21;2.38;;;2.17;;
51190;SDS011;37253;48.736;9.294;2022-07-10T00:56:25;2.40;;;2.20;;
51190;SDS011;37253;48.736;9.294;2022-07-10T00:58:26;2.20;;;2.00;;
51190;SDS011;37253;48.736;9.294;2022-07-10T01:00:27;2.20;;;2.00;;
51190;SDS011;37253;48.736;9.294;2022-07-10T01:02:27;2.33;;;2.20;;
51190;SDS011;37253;48.736;9.294;2022-07-10T01:04:28;2.05;;;1.85;;
51190;SDS011;37253;48.736;9.294;2022-07-10T01:06:28;2.50;;;2.30;;
51190;SDS011;37253;48.736;9.294;2022-07-10T01:08:28;2.20;;;2.00;;
51190;SDS011;37253;48.736;9.294;2022-07-10T01:10:29;2.10;;;2.00;;
51190;SDS011;37253;48.736;9.294;2022-07-10T01:12:29;2.10;;;2.00;;
51190;SDS011;37253;48.736;9.294;2022-07-10T01:14:31;2.60;;;2.40;;
51190;SDS011;37253;48.736;9.294;2022-07-10T01:16:31;2.30;;;2.10;;
51190;SDS011;37253;48.736;9.294;2022-07-10T01:18:32;2.92;;;2.05;;
51190;SDS011;37253;48.736;9.294;2022-07-10T01:20:32;2.50;;;2.30;;
51190;SDS011;37253;48.736;9.294;2022-07-10T01:22:33;2.05;;;1.90;;
51190;SDS011;37253;48.736;9.294;2022-07-10T01:24:33;1.90;;;1.73;;
51190;SDS011;37253;48.736;9.294;2022-07-10T01:26:34;3.50;;;2.33;;
51190;SDS011;37253;48.736;9.294;2022-07-10T01:28:35;2.28;;;2.10;;
51190;SDS011;37253;48.736;9.294;2022-07-10T01:30:35;2.60;;;2.28;;
51190;SDS011;37253;48.736;9.294;2022-07-10T01:32:36;2.10;;;2.00;;
51190;SDS011;37253;48.736;9.294;2022-07-10T01:34:38;2.17;;;2.05;;
51190;SDS011;37253;48.736;9.294;2022-07-10T01:36:39;2.05;;;1.90;;
51190;SDS011;37253;48.736;9.294;2022-07-10T01:38:40;2.00;;;1.90;;
51190;SDS011;37253;48.736;9.294;2022-07-10T01:40:40;2.47;;;2.15;;
51190;SDS011;37253;48.736;9.294;2022-07-10T01:42:41;3.15;;;2.20;;
51190;SDS011;37253;48.736;9.294;2022-07-10T01:44:41;2.17;;;1.73;;
51190;SDS011;37253;48.736;9.294;2022-07-10T01:46:42;2.75;;;2.33;;
51190;SDS011;37253;48.736;9.294;2022-07-10T01:48:46;2.08;;;1.98;;
51190;SDS011;37253;48.736;9.294;2022-07-10T01:50:46;2.38;;;2.17;;
51190;SDS011;37253;48.736;9.294;2022-07-10T01:52:47;1.98;;;1.88;;
51190;SDS011;37253;48.736;9.294;2022-07-10T01:54:47;2.13;;;2.03;;
51190;SDS011;37253;48.736;9.294;2022-07-10T01:56:48;1.98;;;1.88;;
51190;SDS011;37253;48.736;9.294;2022-07-10T01:58:48;2.38;;;2.17;;
51190;SDS011;37253;48.736;9.294;2022-07-10T02:00:48;2.20;;;2.00;;
51190;SDS011;37253;48.736;9.294;2022-07-10T02:02:49;2.30;;;2.03;;
51190;SDS011;37253;48.736;9.294;2022-07-10T02:05:09;2.28;;;2.08;;
51190;SDS011;37253;48.736;9.294;2022-07-10T02:07:13;2.25;;;2.05;;
51190;SDS011;37253;48.736;9.294;2022-07-10T02:09:16;2.45;;;2.13;;
51190;SDS011;37253;48.736;9.294;2022-07-10T02:11:16;2.47;;;2.28;;
51190;SDS011;37253;48.736;9.294;2022-07-10T02:13:17;2.00;;;1.90;;
51190;SDS011;37253;48.736;9.294;2022-07-10T02:15:20;2.00;;;1.90;;
51190;SDS011;37253;48.736;9.294;2022-07-10T02:17:20;2.10;;;2.00;;
51190;SDS011;37253;48.736;9.294;2022-07-10T02:19:20;1.90;;;1.80;;
51190;SDS011;37253;48.736;9.294;2022-07-10T02:21:21;2.00;;;1.90;;
51190;SDS011;37253;48.736;9.294;2022-07-10T02:23:21;2.10;;;2.00;;
51190;SDS011;37253;48.736;9.294;2022-07-10T02:25:22;2.67;;;2.47;;
51190;SDS011;37253;48.736;9.294;2022-07-10T02:27:22;1.98;;;1.80;;
51190;SDS011;37253;48.736;9.294;2022-07-10T02:29:23;2.40;;;2.20;;
51190;SDS011;37253;48.736;9.294;2022-07-10T02:31:23;2.28;;;2.10;;
51190;SDS011;37253;48.736;9.294;2022-07-10T02:33:24;2.05;;;1.95;;
51190;SDS011;37253;48.736;9.294;2022-07-10T02:35:24;2.13;;;1.92;;
51190;SDS011;37253;48.736;9.294;2022-07-10T02:37:25;2.15;;;2.00;;
51190;SDS011;37253;48.736;9.294;2022-07-10T02:39:25;2.25;;;2.03;;
51190;SDS011;37253;48.736;9.294;2022-07-10T02:41:25;1.90;;;1.80;;
51190;SDS011;37253;48.736;9.294;2022-07-10T02:43:26;2.38;;;2.17;;
51190;SDS011;37253;48.736;9.294;2022-07-10T02:45:26;2.00;;;1.90;;
51190;SDS011;37253;48.736;9.294;2022-07-10T02:47:27;2.53;;;2.33;;
51190;SDS011;37253;48.736;9.294;2022-07-10T02:49:27;2.50;;;2.30;;
51190;SDS011;37253;48.736;9.294;2022-07-10T02:51:27;2.53;;;2.33;;
51190;SDS011;37253;48.736;9.294;2022-07-10T02:53:29;2.05;;;1.83;;
51190;SDS011;37253;48.736;9.294;2022-07-10T02:55:31;2.30;;;2.10;;
51190;SDS011;37253;48.736;9.294;2022-07-10T02:57:31;2.30;;;2.17;;
51190;SDS011;37253;48.736;9.294;2022-07-10T02:59:32;2.00;;;1.90;;
51190;SDS011;37253;48.736;9.294;2022-07-10T03:01:32;2.08;;;1.92;;
51190;SDS011;37253;48.736;9.294;2022-07-10T03:03:32;2.40;;;2.20;;
51190;SDS011;37253;48.736;9.294;2022-07-10T03:05:33;2.25;;;2.05;;
51190;SDS011;37253;48.736;9.294;2022-07-10T03:07:33;2.20;;;2.00;;
51190;SDS011;37253;48.736;9.294;2022-07-10T03:09:33;2.00;;;1.90;;
51190;SDS011;37253;48.736;9.294;2022-07-10T03:11:34;2.00;;;1.90;;
51190;SDS011;37253;48.736;9.294;2022-07-10T03:13:34;2.30;;;2.20;;
51190;SDS011;37253;48.736;9.294;2022-07-10T03:15:34;2.05;;;1.88;;
51190;SDS011;37253;48.736;9.294;2022-07-10T03:17:35;2.10;;;2.00;;
51190;SDS011;37253;48.736;9.294;2022-07-10T03:19:35;2.25;;;2.15;;
51190;SDS011;37253;48.736;9.294;2022-07-10T03:21:36;1.85;;;1.70;;
51190;SDS011;37253;48.736;9.294;2022-07-10T03:23:36;2.08;;;1.98;;
51190;SDS011;37253;48.736;9.294;2022-07-10T03:25:39;1.92;;;1.80;;
51190;SDS011;37253;48.736;9.294;2022-07-10T03:27:39;2.30;;;2.10;;
51190;SDS011;37253;48.736;9.294;2022-07-10T03:29:40;2.17;;;1.98;;
51190;SDS011;37253;48.736;9.294;2022-07-10T03:31:40;2.10;;;2.00;;
51190;SDS011;37253;48.736;9.294;2022-07-10T03:33:41;2.10;;;2.00;;
51190;SDS011;37253;48.736;9.294;2022-07-10T03:35:41;1.70;;;1.60;;
51190;SDS011;37253;48.736;9.294;2022-07-10T03:37:41;2.20;;;2.00;;
51190;SDS011;37253;48.736;9.294;2022-07-10T03:39:42;2.47;;;2.28;;
51190;SDS011;37253;48.736;9.294;2022-07-10T03:41:43;2.08;;;1.95;;
51190;SDS011;37253;48.736;9.294;2022-07-10T03:43:43;2.30;;;2.10;;
51190;SDS011;37253;48.736;9.294;2022-07-10T03:45:43;1.70;;;1.60;;
51190;SDS011;37253;48.736;9.294;2022-07-10T03:47:43;2.35;;;2.15;;
51190;SDS011;37253;48.736;9.294;2022-07-10T03:49:44;2.10;;;2.00;;
51190;SDS011;37253;48.736;9.294;2022-07-10T03:51:44;1.90;;;1.80;;
51190;SDS011;37253;48.736;9.294;2022-07-10T03:53:45;2.05;;;1.95;;
51190;SDS011;37253;48.736;9.294;2022-07-10T03:55:45;2.45;;;2.25;;
51190;SDS011;37253;48.736;9.294;2022-07-10T03:57:46;2.47;;;2.28;;
51190;SDS011;37253;48.736;9.294;2022-07-10T04:00:02;2.08;;;1.90;;
51190;SDS011;37253;48.736;9.294;2022-07-10T04:02:03;2.10;;;1.90;;
51190;SDS011;37253;48.736;9.294;2022-07-10T04:04:04;2.08;;;1.90;;
51190;SDS011;37253;48.736;9.294;2022-07-10T04:06:04;2.35;;;1.95;;
51190;SDS011;37253;48.736;9.294;2022-07-10T04:08:04;2.40;;;2.20;;
51190;SDS011;37253;48.736;9.294;2022-07-10T04:10:05;2.00;;;1.80;;
51190;SDS011;37253;48.736;9.294;2022-07-10T04:12:06;2.10;;;2.00;;
51190;SDS011;37253;48.736;9.294;2022-07-10T04:14:06;2.33;;;2.13;;
51190;SDS011;37253;48.736;9.294;2022-07-10T04:16:07;1.90;;;1.70;;
51190;SDS011;37253;48.736;9.294;2022-07-10T04:18:10;1.95;;;1.80;;
51190;SDS011;37253;48.736;9.294;2022-07-10T04:20:10;2.00;;;1.90;;
51190;SDS011;37253;48.736;9.294;2022-07-10T04:22:11;2.03;;;1.92;;
51190;SDS011;37253;48.736;9.294;2022-07-10T04:24:11;2.13;;;1.95;;
51190;SDS011;37253;48.736;9.294;2022-07-10T04:26:12;1.90;;;1.80;;
51190;SDS011;37253;48.736;9.294;2022-07-10T04:28:12;1.98;;;1.80;;
51190;SDS011;37253;48.736;9.294;2022-07-10T04:30:12;2.17;;;2.08;;
51190;SDS011;37253;48.736;9.294;2022-07-10T04:32:13;2.17;;;1.98;;
51190;SDS011;37253;48.736;9.294;2022-07-10T04:34:14;2.00;;;1.90;;
51190;SDS011;37253;48.736;9.294;2022-07-10T04:36:14;1.77;;;1.67;;
51190;SDS011;37253;48.736;9.294;2022-07-10T04:38:16;1.90;;;1.80;;
51190;SDS011;37253;48.736;9.294;2022-07-10T04:40:16;1.98;;;1.88;;
51190;SDS011;37253;48.736;9.294;2022-07-10T04:42:16;2.25;;;2.05;;
51190;SDS011;37253;48.736;9.294;2022-07-10T04:44:17;2.20;;;2.10;;
51190;SDS011;37253;48.736;9.294;2022-07-10T04:46:18;1.98;;;1.83;;
51190;SDS011;37253;48.736;9.294;2022-07-10T04:48:18;1.88;;;1.77;;
51190;SDS011;37253;48.736;9.294;2022-07-10T04:50:18;2.25;;;1.92;;
51190;SDS011;37253;48.736;9.294;2022-07-10T04:52:19;2.15;;;2.05;;
51190;SDS011;37253;48.736;9.294;2022-07-10T04:54:19;2.20;;;2.10;;
51190;SDS011;37253;48.736;9.294;2022-07-10T04:56:19;2.28;;;1.92;;
51190;SDS011;37253;48.736;9.294;2022-07-10T04:58:19;2.30;;;2.10;;
51190;SDS011;37253;48.736;9.294;2022-07-10T05:00:20;2.08;;;1.98;;
51190;SDS011;37253;48.736;9.294;2022-07-10T05:02:20;2.25;;;2.05;;
51190;SDS011;37253;48.736;9.294;2022-07-10T05:04:20;2.08;;;1.98;;
51190;SDS011;37253;48.736;9.294;2022-07-10T05:06:21;1.88;;;1.63;;
51190;SDS011;37253;48.736;9.294;2022-07-10T05:08:21;2.00;;;1.90;;
51190;SDS011;37253;48.736;9.294;2022-07-10T05:10:21;2.33;;;2.03;;
51190;SDS011;37253;48.736;9.294;2022-07-10T05:12:22;1.90;;;1.80;;
51190;SDS011;37253;48.736;9.294;2022-07-10T05:14:23;2.08;;;1.85;;
51190;SDS011;37253;48.736;9.294;2022-07-10T05:16:25;1.88;;;1.77;;
51190;SDS011;37253;48.736;9.294;2022-07-10T05:18:25;1.88;;;1.75;;
51190;SDS011;37253;48.736;9.294;2022-07-10T05:20:26;1.83;;;1.73;;
51190;SDS011;37253;48.736;9.294;2022-07-10T05:22:26;1.70;;;1.60;;
51190;SDS011;37253;48.736;9.294;2022-07-10T05:24:26;1.77;;;1.67;;
51190;SDS011;37253;48.736;9.294;2022-07-10T05:26:27;2.00;;;1.80;;
51190;SDS011;37253;48.736;9.294;2022-07-10T05:28:27;2.10;;;1.77;;
51190;SDS011;37253;48.736;9.294;2022-07-10T05:30:27;1.73;;;1.63;;
51190;SDS011;37253;48.736;9.294;2022-07-10T05:32:28;2.10;;;2.00;;
51190;SDS011;37253;48.736;9.294;2022-07-10T05:34:28;1.80;;;1.70;;
51190;SDS011;37253;48.736;9.294;2022-07-10T05:36:28;1.80;;;1.70;;
51190;SDS011;37253;48.736;9.294;2022-07-10T05:38:29;2.00;;;1.90;;
51190;SDS011;37253;48.736;9.294;2022-07-10T05:40:29;1.92;;;1.83;;
51190;SDS011;37253;48.736;9.294;2022-07-10T05:42:30;2.25;;;2.05;;
51190;SDS011;37253;48.736;9.294;2022-07-10T05:44:30;2.00;;;1.90;;
51190;SDS011;37253;48.736;9.294;2022-07-10T05:46:30;2.20;;;2.00;;
51190;SDS011;37253;48.736;9.294;2022-07-10T05:48:31;1.80;;;1.70;;
51190;SDS011;37253;48.736;9.294;2022-07-10T05:50:31;1.80;;;1.70;;
51190;SDS011;37253;48.736;9.294;2022-07-10T05:52:32;2.08;;;1.92;;
51190;SDS011;37253;48.736;9.294;2022-07-10T05:54:33;2.20;;;1.88;;
51190;SDS011;37253;48.736;9.294;2022-07-10T05:56:33;1.80;;;1.70;;
51190;SDS011;37253;48.736;9.294;2022-07-10T05:58:34;1.83;;;1.73;;
51190;SDS011;37253;48.736;9.294;2022-07-10T06:00:34;3.67;;;2.13;;
51190;SDS011;37253;48.736;9.294;2022-07-10T06:02:35;2.10;;;2.00;;
51190;SDS011;37253;48.736;9.294;2022-07-10T06:04:35;1.83;;;1.73;;
51190;SDS011;37253;48.736;9.294;2022-07-10T06:06:35;1.98;;;1.88;;
51190;SDS011;37253;48.736;9.294;2022-07-10T06:08:36;2.20;;;2.00;;
51190;SDS011;37253;48.736;9.294;2022-07-10T06:10:36;1.83;;;1.73;;
51190;SDS011;37253;48.736;9.294;2022-07-10T06:12:36;2.00;;;1.90;;
51190;SDS011;37253;48.736;9.294;2022-07-10T06:14:37;1.90;;;1.80;;
51190;SDS011;37253;48.736;9.294;2022-07-10T06:16:37;2.13;;;2.03;;
51190;SDS011;37253;48.736;9.294;2022-07-10T06:18:38;2.00;;;1.90;;
51190;SDS011;37253;48.736;9.294;2022-07-10T06:20:38;2.35;;;2.00;;
51190;SDS011;37253;48.736;9.294;2022-07-10T06:22:38;2.03;;;1.92;;
51190;SDS011;37253;48.736;9.294;2022-07-10T06:24:40;1.58;;;1.48;;
51190;SDS011;37253;48.736;9.294;2022-07-10T06:26:40;2.15;;;2.05;;
51190;SDS011;37253;48.736;9.294;2022-07-10T06:28:40;1.80;;;1.70;;
51190;SDS011;37253;48.736;9.294;2022-07-10T06:30:40;2.08;;;1.90;;
51190;SDS011;37253;48.736;9.294;2022-07-10T06:32:41;1.90;;;1.80;;
51190;SDS011;37253;48.736;9.294;2022-07-10T06:34:41;2.10;;;2.00;;
51190;SDS011;37253;48.736;9.294;2022-07-10T06:36:42;1.77;;;1.67;;
51190;SDS011;37253;48.736;9.294;2022-07-10T06:38:42;2.05;;;1.80;;
51190;SDS011;37253;48.736;9.294;2022-07-10T06:40:42;1.83;;;1.73;;
51190;SDS011;37253;48.736;9.294;2022-07-10T06:42:44;1.83;;;1.63;;
51190;SDS011;37253;48.736;9.294;2022-07-10T06:44:45;2.05;;;1.83;;
51190;SDS011;37253;48.736;9.294;2022-07-10T06:46:45;1.80;;;1.70;;
51190;SDS011;37253;48.736;9.294;2022-07-10T06:49:05;2.00;;;1.90;;
51190;SDS011;37253;48.736;9.294;2022-07-10T06:51:06;2.35;;;1.88;;
51190;SDS011;37253;48.736;9.294;2022-07-10T06:53:07;1.65;;;1.55;;
51190;SDS011;37253;48.736;9.294;2022-07-10T06:55:08;2.00;;;1.90;;
51190;SDS011;37253;48.736;9.294;2022-07-10T06:57:09;2.00;;;1.90;;
51190;SDS011;37253;48.736;9.294;2022-07-10T06:59:09;1.70;;;1.60;;
51190;SDS011;37253;48.736;9.294;2022-07-10T07:01:09;2.17;;;2.08;;
51190;SDS011;37253;48.736;9.294;2022-07-10T07:03:10;1.88;;;1.77;;
51190;SDS011;37253;48.736;9.294;2022-07-10T07:05:10;2.15;;;1.77;;
51190;SDS011;37253;48.736;9.294;2022-07-10T07:07:11;2.00;;;1.90;;
51190;SDS011;37253;48.736;9.294;2022-07-10T07:09:15;1.80;;;1.70;;
51190;SDS011;37253;48.736;9.294;2022-07-10T07:11:15;2.00;;;1.90;;
51190;SDS011;37253;48.736;9.294;2022-07-10T07:13:15;1.92;;;1.83;;
51190;SDS011;37253;48.736;9.294;2022-07-10T07:15:16;1.98;;;1.80;;
51190;SDS011;37253;48.736;9.294;2022-07-10T07:17:16;2.20;;;2.00;;
51190;SDS011;37253;48.736;9.294;2022-07-10T07:19:25;1.90;;;1.70;;
51190;SDS011;37253;48.736;9.294;2022-07-10T07:21:31;2.10;;;1.90;;
51190;SDS011;37253;48.736;9.294;2022-07-10T07:23:50;2.10;;;1.90;;
51190;SDS011;37253;48.736;9.294;2022-07-10T07:25:52;1.90;;;1.80;;
51190;SDS011;37253;48.736;9.294;2022-07-10T07:27:52;1.77;;;1.67;;
51190;SDS011;37253;48.736;9.294;2022-07-10T07:29:52;1.70;;;1.60;;
51190;SDS011;37253;48.736;9.294;2022-07-10T07:31:53;1.75;;;1.65;;
51190;SDS011;37253;48.736;9.294;2022-07-10T07:33:55;1.70;;;1.60;;
51190;SDS011;37253;48.736;9.294;2022-07-10T07:35:55;2.00;;;1.90;;
51190;SDS011;37253;48.736;9.294;2022-07-10T07:37:56;1.88;;;1.77;;
51190;SDS011;37253;48.736;9.294;2022-07-10T07:39:57;2.20;;;2.10;;
51190;SDS011;37253;48.736;9.294;2022-07-10T07:41:58;1.67;;;1.58;;
51190;SDS011;37253;48.736;9.294;2022-07-10T07:43:58;1.73;;;1.63;;
51190;SDS011;37253;48.736;9.294;2022-07-10T07:45:58;1.95;;;1.60;;
51190;SDS011;37253;48.736;9.294;2022-07-10T07:47:59;2.10;;;1.90;;
51190;SDS011;37253;48.736;9.294;2022-07-10T07:50:02;1.70;;;1.60;;
51190;SDS011;37253;48.736;9.294;2022-07-10T07:52:03;2.00;;;1.80;;
51190;SDS011;37253;48.736;9.294;2022-07-10T07:54:04;1.95;;;1.75;;
51190;SDS011;37253;48.736;9.294;2022-07-10T07:56:04;1.90;;;1.80;;
51190;SDS011;37253;48.736;9.294;2022-07-10T07:58:05;2.05;;;1.95;;
51190;SDS011;37253;48.736;9.294;2022-07-10T08:00:05;2.05;;;1.95;;
51190;SDS011;37253;48.736;9.294;2022-07-10T08:02:08;1.80;;;1.70;;
51190;SDS011;37253;48.736;9.294;2022-07-10T08:04:08;2.15;;;1.98;;
51190;SDS011;37253;48.736;9.294;2022-07-10T08:06:09;1.70;;;1.60;;
51190;SDS011;37253;48.736;9.294;2022-07-10T08:08:09;1.95;;;1.85;;
51190;SDS011;37253;48.736;9.294;2022-07-10T08:10:10;1.88;;;1.77;;
51190;SDS011;37253;48.736;9.294;2022-07-10T08:12:13;1.90;;;1.80;;
51190;SDS011;37253;48.736;9.294;2022-07-10T08:14:13;1.98;;;1.83;;
51190;SDS011;37253;48.736;9.294;2022-07-10T08:16:14;1.80;;;1.70;;
51190;SDS011;37253;48.736;9.294;2022-07-10T08:18:14;1.95;;;1.77;;
51190;SDS011;37253;48.736;9.294;2022-07-10T08:20:15;2.00;;;1.80;;
51190;SDS011;37253;48.736;9.294;2022-07-10T08:22:15;2.38;;;1.55;;
51190;SDS011;37253;48.736;9.294;2022-07-10T08:24:16;1.80;;;1.70;;
51190;SDS011;37253;48.736;9.294;2022-07-10T08:26:16;1.90;;;1.80;;
51190;SDS011;37253;48.736;9.294;2022-07-10T08:28:16;1.80;;;1.70;;
51190;SDS011;37253;48.736;9.294;2022-07-10T08:30:17;1.77;;;1.67;;
51190;SDS011;37253;48.736;9.294;2022-07-10T08:32:17;2.17;;;1.85;;
51190;SDS011;37253;48.736;9.294;2022-07-10T08:34:18;2.13;;;1.92;;
51190;SDS011;37253;48.736;9.294;2022-07-10T08:36:18;1.65;;;1.55;;
51190;SDS011;37253;48.736;9.294;2022-07-10T08:38:18;2.10;;;1.90;;
51190;SDS011;37253;48.736;9.294;2022-07-10T08:40:20;1.80;;;1.70;;
51190;SDS011;37253;48.736;9.294;2022-07-10T08:42:21;1.88;;;1.77;;
51190;SDS011;37253;48.736;9.294;2022-07-10T08:44:22;2.13;;;1.95;;
51190;SDS011;37253;48.736;9.294;2022-07-10T08:46:23;2.00;;;1.90;;
51190;SDS011;37253;48.736;9.294;2022-07-10T08:48:23;2.20;;;2.00;;
51190;SDS011;37253;48.736;9.294;2022-07-10T08:50:24;1.92;;;1.83;;
51190;SDS011;37253;48.736;9.294;2022-07-10T08:52:33;1.98;;;1.88;;
51190;SDS011;37253;48.736;9.294;2022-07-10T08:54:37;2.10;;;2.00;;
51190;SDS011;37253;48.736;9.294;2022-07-10T08:56:38;1.73;;;1.63;;
51190;SDS011;37253;48.736;9.294;2022-07-10T08:58:39;1.90;;;1.80;;
51190;SDS011;37253;48.736;9.294;2022-07-10T09:00:39;1.88;;;1.77;;
51190;SDS011;37253;48.736;9.294;2022-07-10T09:02:40;1.80;;;1.70;;
51190;SDS011;37253;48.736;9.294;2022-07-10T09:04:41;1.92;;;1.83;;
51190;SDS011;37253;48.736;9.294;2022-07-10T09:06:41;1.95;;;1.75;;
51190;SDS011;37253;48.736;9.294;2022-07-10T09:08:57;1.63;;;1.52;;
51190;SDS011;37253;48.736;9.294;2022-07-10T09:11:17;2.10;;;2.00;;
51190;SDS011;37253;48.736;9.294;2022-07-10T09:13:18;1.80;;;1.70;;
51190;SDS011;37253;48.736;9.294;2022-07-10T09:15:19;1.90;;;1.80;;
51190;SDS011;37253;48.736;9.294;2022-07-10T09:17:22;2.10;;;1.90;;
51190;SDS011;37253;48.736;9.294;2022-07-10T09:19:23;1.88;;;1.77;;
51190;SDS011;37253;48.736;9.294;2022-07-10T09:21:25;1.65;;;1.55;;
51190;SDS011;37253;48.736;9.294;2022-07-10T09:23:25;1.70;;;1.60;;
51190;SDS011;37253;48.736;9.294;2022-07-10T09:25:32;1.80;;;1.70;;
51190;SDS011;37253;48.736;9.294;2022-07-10T09:27:34;1.77;;;1.67;;
51190;SDS011;37253;48.736;9.294;2022-07-10T09:29:51;1.70;;;1.60;;
51190;SDS011;37253;48.736;9.294;2022-07-10T09:31:55;1.80;;;1.70;;
51190;SDS011;37253;48.736;9.294;2022-07-10T09:33:59;1.90;;;1.80;;
51190;SDS011;37253;48.736;9.294;2022-07-10T09:38:09;1.88;;;1.77;;
51190;SDS011;37253;48.736;9.294;2022-07-10T09:40:09;1.92;;;1.83;;
51190;SDS011;37253;48.736;9.294;2022-07-10T09:42:10;1.83;;;1.73;;
51190;SDS011;37253;48.736;9.294;2022-07-10T09:44:24;1.80;;;1.70;;
51190;SDS011;37253;48.736;9.294;2022-07-10T09:46:26;1.70;;;1.60;;
51190;SDS011;37253;48.736;9.294;2022-07-10T09:48:26;2.45;;;2.03;;
51190;SDS011;37253;48.736;9.294;2022-07-10T09:50:31;2.05;;;1.88;;
51190;SDS011;37253;48.736;9.294;2022-07-10T09:52:33;1.77;;;1.67;;
51190;SDS011;37253;48.736;9.294;2022-07-10T09:54:34;1.73;;;1.63;;
51190;SDS011;37253;48.736;9.294;2022-07-10T09:58:42;1.98;;;1.77;;
51190;SDS011;37253;48.736;9.294;2022-07-10T10:00:44;2.00;;;1.90;;
51190;SDS011;37253;48.736;9.294;2022-07-10T10:02:46;1.75;;;1.63;;
51190;SDS011;37253;48.736;9.294;2022-07-10T10:04:47;1.90;;;1.70;;
51190;SDS011;37253;48.736;9.294;2022-07-10T10:06:52;1.88;;;1.77;;
51190;SDS011;37253;48.736;9.294;2022-07-10T10:11:05;1.70;;;1.60;;
51190;SDS011;37253;48.736;9.294;2022-07-10T10:13:08;1.50;;;1.40;;
51190;SDS011;37253;48.736;9.294;2022-07-10T10:15:10;1.60;;;1.50;;
51190;SDS011;37253;48.736;9.294;2022-07-10T10:17:11;1.50;;;1.40;;
51190;SDS011;37253;48.736;9.294;2022-07-10T10:19:12;1.98;;;1.60;;
51190;SDS011;37253;48.736;9.294;2022-07-10T10:21:32;1.95;;;1.85;;
51190;SDS011;37253;48.736;9.294;2022-07-10T10:23:34;1.70;;;1.60;;
51190;SDS011;37253;48.736;9.294;2022-07-10T10:25:34;2.33;;;1.90;;
51190;SDS011;37253;48.736;9.294;2022-07-10T10:27:36;1.50;;;1.40;;
51190;SDS011;37253;48.736;9.294;2022-07-10T10:29:38;1.77;;;1.67;;
51190;SDS011;37253;48.736;9.294;2022-07-10T10:31:39;1.90;;;1.75;;
51190;SDS011;37253;48.736;9.294;2022-07-10T10:33:40;2.22;;;1.58;;
51190;SDS011;37253;48.736;9.294;2022-07-10T10:35:42;1.60;;;1.50;;
51190;SDS011;37253;48.736;9.294;2022-07-10T10:37:50;1.63;;;1.52;;
51190;SDS011;37253;48.736;9.294;2022-07-10T10:39:51;1.50;;;1.40;;
51190;SDS011;37253;48.736;9.294;2022-07-10T10:41:53;1.67;;;1.58;;
51190;SDS011;37253;48.736;9.294;2022-07-10T10:46:24;1.85;;;1.75;;
51190;SDS011;37253;48.736;9.294;2022-07-10T10:48:25;2.13;;;1.80;;
51190;SDS011;37253;48.736;9.294;2022-07-10T10:50:35;1.58;;;1.48;;
51190;SDS011;37253;48.736;9.294;2022-07-10T10:52:36;2.00;;;1.80;;
51190;SDS011;37253;48.736;9.294;2022-07-10T10:57:14;1.50;;;1.40;;
51190;SDS011;37253;48.736;9.294;2022-07-10T11:00:01;2.03;;;1.90;;
51190;SDS011;37253;48.736;9.294;2022-07-10T11:01:46;1.40;;;1.30;;
51190;SDS011;37253;48.736;9.294;2022-07-10T11:06:38;1.80;;;1.70;;
51190;SDS011;37253;48.736;9.294;2022-07-10T11:08:48;2.00;;;1.90;;
51190;SDS011;37253;48.736;9.294;2022-07-10T11:10:49;1.75;;;1.58;;
51190;SDS011;37253;48.736;9.294;2022-07-10T11:13:02;1.90;;;1.80;;
51190;SDS011;37253;48.736;9.294;2022-07-10T11:15:15;1.57;;;1.47;;
51190;SDS011;37253;48.736;9.294;2022-07-10T11:17:16;1.60;;;1.50;;
51190;SDS011;37253;48.736;9.294;2022-07-10T11:19:20;2.47;;;1.65;;
51190;SDS011;37253;48.736;9.294;2022-07-10T11:21:23;1.70;;;1.60;;
51190;SDS011;37253;48.736;9.294;2022-07-10T11:28:05;2.40;;;1.65;;
51190;SDS011;37253;48.736;9.294;2022-07-10T11:30:08;3.10;;;1.77;;
51190;SDS011;37253;48.736;9.294;2022-07-10T11:32:10;1.83;;;1.70;;
51190;SDS011;37253;48.736;9.294;2022-07-10T11:34:15;1.70;;;1.60;;
51190;SDS011;37253;48.736;9.294;2022-07-10T11:36:22;3.72;;;1.73;;
51190;SDS011;37253;48.736;9.294;2022-07-10T11:38:28;2.50;;;1.52;;
51190;SDS011;37253;48.736;9.294;2022-07-10T11:40:35;3.47;;;1.80;;
51190;SDS011;37253;48.736;9.294;2022-07-10T11:42:49;2.25;;;1.55;;
51190;SDS011;37253;48.736;9.294;2022-07-10T11:44:53;1.83;;;1.63;;
51190;SDS011;37253;48.736;9.294;2022-07-10T11:46:54;3.15;;;1.58;;
51190;SDS011;37253;48.736;9.294;2022-07-10T11:48:57;2.00;;;1.85;;
51190;SDS011;37253;48.736;9.294;2022-07-10T11:50:57;3.17;;;1.83;;
51190;SDS011;37253;48.736;9.294;2022-07-10T11:52:58;1.60;;;1.50;;
51190;SDS011;37253;48.736;9.294;2022-07-10T11:55:12;2.97;;;1.40;;
51190;SDS011;37253;48.736;9.294;2022-07-10T11:57:14;5.05;;;1.90;;
51190;SDS011;37253;48.736;9.294;2022-07-10T11:59:14;3.30;;;1.70;;
51190;SDS011;37253;48.736;9.294;2022-07-10T12:01:15;4.10;;;1.70;;
51190;SDS011;37253;48.736;9.294;2022-07-10T12:03:16;1.65;;;1.40;;
51190;SDS011;37253;48.736;9.294;2022-07-10T12:05:35;1.90;;;1.55;;
51190;SDS011;37253;48.736;9.294;2022-07-10T12:07:37;2.85;;;1.60;;
51190;SDS011;37253;48.736;9.294;2022-07-10T12:09:38;4.68;;;2.00;;
51190;SDS011;37253;48.736;9.294;2022-07-10T12:11:39;2.33;;;1.65;;
51190;SDS011;37253;48.736;9.294;2022-07-10T12:13:40;2.25;;;1.70;;
51190;SDS011;37253;48.736;9.294;2022-07-10T12:15:45;2.25;;;1.73;;
51190;SDS011;37253;48.736;9.294;2022-07-10T12:17:52;3.45;;;1.60;;
51190;SDS011;37253;48.736;9.294;2022-07-10T12:19:52;4.07;;;2.03;;
51190;SDS011;37253;48.736;9.294;2022-07-10T12:21:56;6.00;;;2.17;;
51190;SDS011;37253;48.736;9.294;2022-07-10T12:23:56;5.70;;;1.77;;
51190;SDS011;37253;48.736;9.294;2022-07-10T12:25:57;4.68;;;1.75;;
51190;SDS011;37253;48.736;9.294;2022-07-10T12:27:57;7.57;;;2.28;;
51190;SDS011;37253;48.736;9.294;2022-07-10T12:30:01;7.22;;;2.20;;
51190;SDS011;37253;48.736;9.294;2022-07-10T12:32:01;7.43;;;2.63;;
51190;SDS011;37253;48.736;9.294;2022-07-10T12:34:02;8.35;;;2.72;;